createdAt,value
2018-10-09T00:00:49.470Z,79.40
2018-10-09T00:03:18.442Z,79.40
2018-10-09T00:05:47.518Z,79.50
2018-10-09T00:08:16.524Z,79.60
2018-10-09T00:10:45.510Z,79.60
2018-10-09T00:13:14.563Z,79.90
2018-10-09T00:15:43.611Z,79.90
2018-10-09T00:18:12.675Z,80.00
2018-10-09T00:20:41.729Z,80.00
2018-10-09T00:23:10.739Z,80.30
2018-10-09T00:25:39.691Z,80.00
2018-10-09T00:28:08.706Z,79.90
2018-10-09T00:30:37.731Z,79.80
2018-10-09T00:33:06.912Z,79.90
2018-10-09T00:35:35.918Z,79.90
2018-10-09T00:38:05.087Z,79.80
2018-10-09T00:40:34.035Z,80.10
2018-10-09T00:43:03.073Z,79.60
2018-10-09T00:45:32.044Z,79.80
2018-10-09T00:48:01.072Z,79.80
2018-10-09T00:50:30.066Z,79.80
2018-10-09T00:52:59.081Z,80.10
2018-10-09T00:55:28.053Z,80.30
2018-10-09T00:57:57.095Z,80.40
2018-10-09T01:00:26.249Z,80.50
2018-10-09T01:02:55.289Z,80.80
2018-10-09T01:05:24.363Z,80.70
2018-10-09T01:07:53.592Z,80.70
2018-10-09T01:10:22.693Z,80.60
2018-10-09T01:12:51.808Z,80.80
2018-10-09T01:15:20.862Z,80.90
2018-10-09T01:17:49.913Z,81.00
2018-10-09T01:20:24.129Z,81.00
2018-10-09T01:22:53.116Z,80.80
2018-10-09T01:25:22.289Z,81.00
2018-10-09T01:27:51.373Z,81.20
2018-10-09T01:30:20.400Z,81.10
2018-10-09T01:32:49.376Z,81.00
2018-10-09T01:35:18.512Z,81.00
2018-10-09T01:37:47.457Z,80.90
2018-10-09T01:40:16.497Z,80.70
2018-10-09T01:42:45.802Z,80.80
2018-10-09T01:45:14.748Z,80.90
2018-10-09T01:47:43.870Z,81.30
2018-10-09T01:50:12.812Z,80.90
2018-10-09T01:52:41.892Z,80.90
2018-10-09T01:55:10.955Z,80.90
2018-10-09T01:57:39.978Z,81.00
2018-10-09T02:00:09.888Z,81.30
2018-10-09T02:02:40.221Z,81.20
2018-10-09T02:05:09.483Z,81.10
2018-10-09T02:07:38.567Z,80.90
2018-10-09T02:10:07.812Z,80.70
2018-10-09T02:12:36.866Z,80.90
2018-10-09T02:15:06.055Z,80.90
2018-10-09T02:17:35.113Z,80.80
2018-10-09T02:20:04.243Z,80.90
2018-10-09T02:22:33.303Z,80.90
2018-10-09T02:25:02.295Z,80.70
2018-10-09T02:27:31.287Z,80.70
2018-10-09T02:30:00.362Z,80.80
2018-10-09T02:32:29.381Z,80.70
2018-10-09T02:34:58.492Z,80.70
2018-10-09T02:37:27.557Z,80.60
2018-10-09T02:39:56.624Z,80.50
2018-10-09T02:42:25.663Z,80.40
2018-10-09T02:44:54.755Z,80.90
2018-10-09T02:47:23.816Z,80.50
2018-10-09T02:49:52.835Z,80.60
2018-10-09T02:52:21.862Z,80.50
2018-10-09T02:54:50.892Z,80.50
2018-10-09T02:57:19.902Z,80.50
2018-10-09T02:59:48.998Z,80.70
2018-10-09T03:02:18.004Z,80.60
2018-10-09T03:04:47.174Z,80.50
2018-10-09T03:07:16.166Z,80.30
2018-10-09T03:09:45.137Z,80.30
2018-10-09T03:12:14.176Z,79.60
2018-10-09T03:14:43.289Z,80.20
2018-10-09T03:17:12.350Z,80.20
2018-10-09T03:19:41.343Z,80.20
2018-10-09T03:22:10.343Z,80.10
2018-10-09T03:24:39.414Z,80.40
2018-10-09T03:27:08.435Z,80.30
2018-10-09T03:29:37.518Z,80.50
2018-10-09T03:32:07.044Z,80.50
2018-10-09T03:34:36.130Z,80.50
2018-10-09T03:37:05.472Z,80.60
2018-10-09T03:39:34.538Z,80.40
2018-10-09T03:42:03.637Z,80.40
2018-10-09T03:44:32.806Z,80.40
2018-10-09T03:47:01.826Z,80.70
2018-10-09T03:49:30.882Z,80.70
2018-10-09T03:51:59.895Z,80.80
2018-10-09T03:54:29.036Z,81.10
2018-10-09T03:56:58.070Z,80.80
2018-10-09T03:59:27.065Z,80.60
2018-10-09T04:01:56.063Z,81.40
2018-10-09T04:04:25.209Z,80.60
2018-10-09T04:06:54.259Z,80.60
2018-10-09T04:09:23.428Z,80.40
2018-10-09T04:11:52.440Z,80.30
2018-10-09T04:14:21.455Z,80.30
2018-10-09T04:16:50.451Z,80.20
2018-10-09T04:19:19.534Z,80.30
2018-10-09T04:21:48.653Z,80.50
2018-10-09T04:24:17.765Z,80.60
2018-10-09T04:26:46.847Z,80.60
2018-10-09T04:29:15.937Z,80.60
2018-10-09T04:31:45.045Z,80.80
2018-10-09T04:34:14.093Z,81.00
2018-10-09T04:36:43.213Z,80.80
2018-10-09T04:39:12.337Z,81.60
2018-10-09T04:41:41.437Z,80.90
2018-10-09T04:44:10.472Z,81.10
2018-10-09T04:46:39.475Z,81.20
2018-10-09T04:49:08.594Z,81.30
2018-10-09T04:51:37.653Z,81.50
2018-10-09T04:54:06.691Z,81.50
2018-10-09T04:56:35.846Z,81.40
2018-10-09T04:59:04.885Z,81.30
2018-10-09T05:01:33.974Z,81.50
2018-10-09T05:04:02.946Z,81.70
2018-10-09T05:06:32.059Z,81.80
2018-10-09T05:09:01.117Z,81.80
2018-10-09T05:13:50.830Z,81.70
2018-10-09T05:16:19.869Z,81.70
2018-10-09T05:18:48.901Z,81.50
2018-10-09T05:21:24.062Z,81.80
2018-10-09T05:23:53.167Z,81.70
2018-10-09T05:26:22.271Z,81.70
2018-10-09T05:28:51.278Z,81.70
2018-10-09T05:31:20.345Z,81.70
2018-10-09T05:33:49.290Z,81.50
2018-10-09T05:36:18.355Z,81.70
2018-10-09T05:38:47.421Z,81.80
2018-10-09T05:41:16.494Z,81.60
2018-10-09T05:43:45.522Z,81.40
2018-10-09T05:46:14.618Z,81.30
2018-10-09T05:48:43.685Z,81.30
2018-10-09T05:51:12.703Z,81.30
2018-10-09T05:53:41.742Z,81.60
2018-10-09T05:56:11.732Z,81.30
2018-10-09T05:58:40.796Z,81.30
2018-10-09T06:01:09.782Z,81.90
2018-10-09T06:03:38.864Z,81.20
2018-10-09T06:06:08.041Z,81.20
2018-10-09T06:08:37.096Z,81.20
2018-10-09T06:11:06.134Z,81.20
2018-10-09T06:13:36.218Z,81.20
2018-10-09T06:16:05.312Z,81.90
2018-10-09T06:18:34.330Z,81.30
2018-10-09T06:21:03.367Z,81.40
2018-10-09T06:23:33.306Z,81.50
2018-10-09T06:26:02.321Z,81.40
2018-10-09T06:28:31.396Z,81.50
2018-10-09T06:31:00.413Z,81.50
2018-10-09T06:33:29.452Z,81.50
2018-10-09T06:35:58.856Z,82.30
2018-10-09T06:38:27.952Z,81.70
2018-10-09T06:43:18.666Z,81.60
2018-10-09T06:45:47.804Z,81.80
2018-10-09T06:48:16.826Z,81.90
2018-10-09T06:51:49.710Z,81.90
2018-10-09T06:54:18.753Z,82.10
2018-10-09T06:56:47.858Z,82.00
2018-10-09T06:59:16.928Z,82.30
2018-10-09T07:01:45.888Z,82.30
2018-10-09T07:04:14.903Z,82.50
2018-10-09T07:06:44.057Z,82.70
2018-10-09T07:09:13.062Z,82.70
2018-10-09T07:11:42.067Z,82.90
2018-10-09T07:14:11.055Z,83.10
2018-10-09T07:16:40.226Z,83.10
2018-10-09T07:19:09.242Z,83.30
2018-10-09T07:21:38.244Z,83.50
2018-10-09T07:24:07.267Z,84.20
2018-10-09T07:26:36.366Z,83.70
2018-10-09T07:29:05.517Z,83.80
2018-10-09T07:31:34.499Z,83.90
2018-10-09T07:34:03.458Z,84.00
2018-10-09T07:36:32.538Z,84.10
2018-10-09T07:39:01.700Z,84.10
2018-10-09T07:41:30.665Z,84.20
2018-10-09T07:43:59.696Z,84.30
2018-10-09T07:46:30.148Z,84.40
2018-10-09T07:48:59.860Z,84.40
2018-10-09T07:51:28.916Z,84.50
2018-10-09T07:53:58.230Z,84.70
2018-10-09T07:56:27.357Z,84.90
2018-10-09T07:58:56.418Z,84.90
2018-10-09T08:01:25.434Z,85.00
2018-10-09T08:03:54.530Z,85.10
2018-10-09T08:06:23.560Z,85.10
2018-10-09T08:08:52.922Z,85.10
2018-10-09T08:11:21.874Z,85.10
2018-10-09T08:13:51.136Z,85.10
2018-10-09T08:16:20.213Z,86.00
2018-10-09T08:18:49.198Z,85.50
2018-10-09T08:21:18.178Z,85.50
2018-10-09T08:23:47.506Z,84.70
2018-10-09T08:26:16.794Z,85.00
2018-10-09T08:28:45.883Z,85.10
2018-10-09T08:31:14.990Z,85.10
2018-10-09T08:33:44.011Z,85.40
2018-10-09T08:36:13.074Z,85.50
2018-10-09T08:38:42.165Z,85.70
2018-10-09T08:41:11.158Z,85.90
2018-10-09T08:43:40.170Z,86.10
2018-10-09T08:46:09.258Z,86.30
2018-10-09T08:48:38.361Z,86.40
2018-10-09T08:51:07.377Z,86.60
2018-10-09T08:53:36.531Z,86.90
2018-10-09T08:56:05.745Z,87.20
2018-10-09T08:58:34.810Z,87.30
2018-10-09T09:01:03.924Z,87.50
2018-10-09T09:03:33.065Z,87.70
2018-10-09T09:06:01.998Z,87.80
2018-10-09T09:08:31.102Z,88.00
2018-10-09T09:11:00.430Z,88.20
2018-10-09T09:13:29.442Z,88.30
2018-10-09T09:15:58.446Z,88.50
2018-10-09T09:18:27.474Z,88.60
2018-10-09T09:20:56.628Z,88.60
2018-10-09T09:23:25.637Z,88.80
2018-10-09T09:25:54.670Z,88.90
2018-10-09T09:28:23.780Z,89.00
2018-10-09T09:30:52.862Z,89.10
2018-10-09T09:33:21.979Z,89.30
2018-10-09T09:35:51.024Z,89.50
2018-10-09T09:38:20.143Z,89.60
2018-10-09T09:40:49.248Z,89.60
2018-10-09T09:43:18.439Z,89.70
2018-10-09T09:45:47.923Z,89.60
2018-10-09T09:48:16.884Z,89.70
2018-10-09T09:50:45.909Z,89.80
2018-10-09T09:53:15.069Z,89.90
2018-10-09T09:55:44.179Z,89.90
2018-10-09T09:58:13.337Z,89.90
2018-10-09T10:00:47.733Z,90.20
2018-10-09T10:03:16.856Z,89.80
2018-10-09T10:05:46.005Z,89.70
2018-10-09T10:08:16.769Z,89.80
2018-10-09T10:10:45.826Z,89.90
2018-10-09T10:13:14.837Z,89.90
2018-10-09T10:15:49.345Z,90.00
2018-10-09T10:18:18.299Z,90.00
2018-10-09T10:20:47.289Z,90.00
2018-10-09T10:23:16.280Z,90.10
2018-10-09T10:25:45.367Z,90.10
2018-10-09T10:28:14.541Z,90.10
2018-10-09T10:30:43.641Z,90.10
2018-10-09T10:33:12.909Z,90.10
2018-10-09T10:35:42.025Z,90.00
2018-10-09T10:38:11.025Z,90.00
2018-10-09T10:40:40.146Z,90.10
2018-10-09T10:43:09.126Z,90.10
2018-10-09T10:45:38.219Z,90.00
2018-10-09T10:48:07.505Z,90.00
2018-10-09T10:50:36.655Z,90.10
2018-10-09T10:53:05.689Z,90.20
2018-10-09T10:55:34.773Z,90.20
2018-10-09T10:58:03.835Z,90.30
2018-10-09T11:00:32.873Z,90.30
2018-10-09T11:03:01.943Z,90.30
2018-10-09T11:05:30.994Z,89.20
2018-10-09T11:08:00.212Z,90.20
2018-10-09T11:10:29.134Z,90.60
2018-10-09T11:12:58.118Z,89.70
2018-10-09T11:15:27.158Z,90.00
2018-10-09T11:17:56.226Z,89.70
2018-10-09T11:20:25.215Z,90.00
2018-10-09T11:22:54.178Z,90.10
2018-10-09T11:25:23.262Z,90.20
2018-10-09T11:27:52.352Z,90.30
2018-10-09T11:30:21.414Z,90.40
2018-10-09T11:32:50.478Z,90.30
2018-10-09T11:35:19.526Z,90.40
2018-10-09T11:37:48.610Z,90.40
2018-10-09T11:40:17.694Z,90.40
2018-10-09T11:42:46.723Z,90.40
2018-10-09T11:45:15.866Z,90.20
2018-10-09T11:47:45.024Z,90.30
2018-10-09T11:50:14.080Z,90.30
2018-10-09T11:52:43.068Z,90.20
2018-10-09T11:55:12.136Z,90.20
2018-10-09T11:57:41.248Z,90.20
2018-10-09T12:00:10.402Z,90.20
2018-10-09T12:02:39.436Z,90.30
2018-10-09T12:05:08.534Z,90.30
2018-10-09T12:07:37.638Z,90.20
2018-10-09T12:10:06.801Z,90.20
2018-10-09T12:12:35.778Z,90.20
2018-10-09T12:15:04.826Z,90.20
2018-10-09T12:17:33.841Z,89.40
2018-10-09T12:20:02.934Z,89.90
2018-10-09T12:22:31.981Z,89.90
2018-10-09T12:25:00.996Z,90.00
2018-10-09T12:27:30.075Z,90.00
2018-10-09T12:29:59.213Z,90.10
2018-10-09T12:32:28.277Z,90.10
2018-10-09T12:34:57.376Z,90.00
2018-10-09T12:37:26.540Z,89.60
2018-10-09T12:39:55.782Z,89.60
2018-10-09T12:42:24.847Z,89.80
2018-10-09T12:44:53.866Z,89.70
2018-10-09T12:47:23.028Z,89.90
2018-10-09T12:49:52.250Z,89.80
2018-10-09T12:52:21.249Z,89.90
2018-10-09T12:54:50.336Z,89.80
2018-10-09T12:57:19.307Z,89.60
2018-10-09T12:59:48.375Z,89.60
2018-10-09T13:02:17.497Z,89.70
2018-10-09T13:04:46.477Z,89.60
2018-10-09T13:07:15.487Z,89.70
2018-10-09T13:09:44.541Z,89.50
2018-10-09T13:12:13.617Z,89.60
2018-10-09T13:14:42.675Z,89.40
2018-10-09T13:17:11.735Z,89.50
2018-10-09T13:19:40.789Z,89.60
2018-10-09T13:22:13.612Z,89.20
2018-10-09T13:24:42.673Z,87.70
2018-10-09T13:27:11.803Z,88.50
2018-10-09T13:29:40.921Z,88.60
2018-10-09T13:32:09.929Z,88.90
2018-10-09T13:34:39.018Z,88.60
2018-10-09T13:37:08.134Z,88.80
2018-10-09T13:39:37.302Z,88.60
2018-10-09T13:42:06.324Z,88.40
2018-10-09T13:44:35.308Z,88.90
2018-10-09T13:47:04.312Z,88.30
2018-10-09T13:49:33.318Z,88.10
2018-10-09T13:52:02.392Z,88.00
2018-10-09T13:54:31.410Z,88.10
2018-10-09T13:57:00.490Z,87.90
2018-10-09T13:59:29.500Z,88.00
2018-10-09T14:01:58.554Z,88.10
2018-10-09T14:04:27.572Z,88.10
2018-10-09T14:06:56.704Z,88.20
2018-10-09T14:09:25.803Z,88.20
2018-10-09T14:11:54.861Z,88.00
2018-10-09T14:14:24.037Z,88.10
2018-10-09T14:16:53.043Z,87.90
2018-10-09T14:19:22.156Z,87.90
2018-10-09T14:21:51.358Z,88.00
2018-10-09T14:24:20.345Z,88.10
2018-10-09T14:26:49.465Z,88.20
2018-10-09T14:29:18.545Z,88.30
2018-10-09T14:31:47.654Z,88.20
2018-10-09T14:34:16.782Z,88.30
2018-10-09T14:36:45.853Z,88.20
2018-10-09T14:39:14.926Z,88.40
2018-10-09T14:41:43.928Z,88.40
2018-10-09T14:44:12.971Z,88.60
2018-10-09T14:46:42.026Z,88.00
2018-10-09T14:49:11.006Z,88.10
2018-10-09T14:51:40.169Z,88.30
2018-10-09T14:54:09.396Z,88.30
2018-10-09T14:56:38.486Z,88.40
2018-10-09T14:59:07.595Z,88.50
2018-10-09T15:01:36.678Z,88.50
2018-10-09T15:04:05.995Z,88.40
2018-10-09T15:06:35.068Z,88.40
2018-10-09T15:09:06.550Z,88.20
2018-10-09T15:11:35.629Z,88.10
2018-10-09T15:14:04.595Z,88.10
2018-10-09T15:16:33.573Z,88.20
2018-10-09T15:19:02.623Z,88.20
2018-10-09T15:21:31.701Z,88.40
2018-10-09T15:24:00.687Z,88.30
2018-10-09T15:26:29.676Z,88.10
2018-10-09T15:28:59.434Z,88.20
2018-10-09T15:31:28.489Z,88.20
2018-10-09T15:33:57.573Z,88.20
2018-10-09T15:36:26.659Z,88.20
2018-10-09T15:38:55.777Z,88.00
2018-10-09T15:41:24.862Z,88.10
2018-10-09T15:43:53.829Z,88.00
2018-10-09T15:46:22.805Z,88.10
2018-10-09T15:48:51.878Z,88.20
2018-10-09T15:51:20.993Z,87.90
2018-10-09T15:53:50.019Z,88.30
2018-10-09T15:56:19.036Z,88.00
2018-10-09T15:58:48.053Z,88.10
2018-10-09T16:01:17.139Z,88.00
2018-10-09T16:03:46.192Z,87.90
2018-10-09T16:06:15.184Z,87.70
2018-10-09T16:08:44.308Z,87.70
2018-10-09T16:11:13.438Z,87.30
2018-10-09T16:13:42.481Z,87.20
2018-10-09T16:16:11.461Z,86.80
2018-10-09T16:18:40.501Z,86.60
2018-10-09T16:21:09.566Z,86.50
2018-10-09T16:23:38.782Z,86.40
2018-10-09T16:26:07.859Z,86.30
2018-10-09T16:28:37.001Z,86.40
2018-10-09T16:31:06.244Z,86.30
2018-10-09T16:33:36.343Z,86.30
2018-10-09T16:36:05.344Z,86.40
2018-10-09T16:38:34.354Z,86.20
2018-10-09T16:41:03.546Z,86.30
2018-10-09T16:43:32.510Z,86.10
2018-10-09T16:46:01.511Z,86.00
2018-10-09T16:48:30.585Z,85.90
2018-10-09T16:50:59.670Z,85.80
2018-10-09T16:53:28.928Z,85.70
2018-10-09T16:55:57.941Z,85.60
2018-10-09T16:58:27.065Z,85.40
2018-10-09T17:00:56.130Z,85.30
2018-10-09T17:03:25.507Z,85.10
2018-10-09T17:05:54.517Z,85.10
2018-10-09T17:08:23.620Z,85.00
2018-10-09T17:10:52.723Z,84.80
2018-10-09T17:13:21.819Z,84.80
2018-10-09T17:15:50.951Z,84.70
2018-10-09T17:18:19.984Z,84.70
2018-10-09T17:20:49.007Z,84.60
2018-10-09T17:23:18.092Z,84.50
2018-10-09T17:25:47.211Z,84.40
2018-10-09T17:28:16.308Z,84.40
2018-10-09T17:30:45.340Z,84.20
2018-10-09T17:33:14.547Z,84.20
2018-10-09T17:35:43.495Z,84.20
2018-10-09T17:38:12.525Z,84.10
2018-10-09T17:40:41.561Z,84.10
2018-10-09T17:43:10.976Z,84.00
2018-10-09T17:45:40.074Z,83.90
2018-10-09T17:48:09.135Z,83.90
2018-10-09T17:50:38.150Z,83.90
2018-10-09T17:53:07.658Z,83.70
2018-10-09T17:55:36.786Z,83.70
2018-10-09T17:58:05.770Z,83.60
2018-10-09T18:00:35.042Z,83.60
2018-10-09T18:03:04.195Z,83.60
2018-10-09T18:05:33.197Z,83.50
2018-10-09T18:08:02.194Z,83.50
2018-10-09T18:10:31.171Z,83.40
2018-10-09T18:13:00.241Z,83.30
2018-10-09T18:15:29.242Z,83.30
2018-10-09T18:17:58.242Z,83.30
2018-10-09T18:20:27.410Z,83.20
2018-10-09T18:22:56.422Z,83.10
2018-10-09T18:25:25.441Z,83.40
2018-10-09T18:27:54.418Z,82.90
2018-10-09T18:30:23.462Z,82.90
2018-10-09T18:32:52.620Z,82.90
2018-10-09T18:35:21.564Z,82.80
2018-10-09T18:37:50.844Z,82.80
2018-10-09T18:40:20.010Z,82.90
2018-10-09T18:42:49.056Z,82.70
2018-10-09T18:45:18.158Z,82.60
2018-10-09T18:47:47.279Z,82.60
2018-10-09T18:50:16.327Z,82.50
2018-10-09T18:52:45.451Z,82.60
2018-10-09T18:55:15.930Z,82.60
2018-10-09T18:57:45.250Z,82.70
2018-10-09T19:00:14.858Z,82.70
2018-10-09T19:02:43.985Z,82.50
2018-10-09T19:05:12.985Z,82.50
2018-10-09T19:07:41.985Z,82.40
2018-10-09T19:10:11.037Z,82.40
2018-10-09T19:12:40.077Z,82.30
2018-10-09T19:15:09.066Z,82.30
2018-10-09T19:17:38.150Z,82.20
2018-10-09T19:20:07.254Z,82.20
2018-10-09T19:22:36.363Z,82.20
2018-10-09T19:25:05.513Z,82.20
2018-10-09T19:27:34.590Z,82.30
2018-10-09T19:30:03.811Z,82.20
2018-10-09T19:32:32.961Z,82.10
2018-10-09T19:35:01.973Z,82.10
2018-10-09T19:37:31.013Z,82.10
2018-10-09T19:40:00.017Z,82.10
2018-10-09T19:42:29.107Z,82.10
2018-10-09T19:44:58.211Z,82.00
2018-10-09T19:47:27.273Z,82.10
2018-10-09T19:49:56.345Z,82.00
2018-10-09T19:52:25.491Z,82.00
2018-10-09T19:54:55.537Z,82.00
2018-10-09T19:57:24.615Z,82.00
2018-10-09T19:59:53.701Z,82.00
2018-10-09T20:02:22.872Z,81.90
2018-10-09T20:04:51.859Z,82.00
2018-10-09T20:07:21.021Z,82.00
2018-10-09T20:09:50.075Z,82.10
2018-10-09T20:12:19.231Z,82.00
2018-10-09T20:14:48.305Z,82.10
2018-10-09T20:17:17.340Z,82.10
2018-10-09T20:19:46.362Z,82.10
2018-10-09T20:22:15.357Z,82.20
2018-10-09T20:24:44.510Z,82.20
2018-10-09T20:27:13.499Z,82.20
2018-10-09T20:29:42.519Z,82.70
2018-10-09T20:32:11.631Z,82.10
2018-10-09T20:34:40.773Z,82.20
2018-10-09T20:37:09.861Z,82.20
2018-10-09T20:39:38.895Z,82.10
2018-10-09T20:42:08.013Z,82.20
2018-10-09T20:44:37.117Z,82.10
2018-10-09T20:47:06.496Z,82.20
2018-10-09T20:49:35.581Z,82.20
2018-10-09T20:52:04.679Z,82.20
2018-10-09T20:54:33.841Z,82.20
2018-10-09T20:57:02.871Z,82.90
2018-10-09T20:59:32.037Z,82.20
2018-10-09T21:02:01.094Z,82.20
2018-10-09T21:04:30.139Z,82.20
2018-10-09T21:06:59.135Z,82.10
2018-10-09T21:09:28.247Z,82.10
2018-10-09T21:11:57.269Z,82.20
2018-10-09T21:14:26.449Z,82.10
2018-10-09T21:16:55.542Z,82.20
2018-10-09T21:19:24.642Z,82.20
2018-10-09T21:21:53.890Z,82.30
2018-10-09T21:24:22.917Z,82.30
2018-10-09T21:26:52.015Z,82.40
2018-10-09T21:29:21.091Z,82.30
2018-10-09T21:31:50.202Z,82.30
2018-10-09T21:34:24.891Z,82.90
2018-10-09T21:36:53.885Z,82.20
2018-10-09T21:39:22.877Z,82.20
2018-10-09T21:41:51.908Z,82.20
2018-10-09T21:44:20.927Z,82.20
2018-10-09T21:46:49.902Z,82.20
2018-10-09T21:49:18.934Z,82.30
2018-10-09T21:51:48.044Z,82.30
2018-10-09T21:54:17.066Z,82.30
2018-10-09T21:56:46.114Z,82.60
2018-10-09T21:59:15.198Z,82.40
2018-10-09T22:01:45.290Z,82.40
2018-10-09T22:04:14.385Z,82.40
2018-10-09T22:06:43.446Z,83.00
2018-10-09T22:09:12.454Z,82.30
2018-10-09T22:11:41.562Z,82.30
2018-10-09T22:14:10.666Z,82.30
2018-10-09T22:16:39.663Z,82.20
2018-10-09T22:19:08.645Z,82.20
2018-10-09T22:21:37.845Z,82.30
2018-10-09T22:24:07.065Z,82.30
2018-10-09T22:26:36.139Z,82.30
2018-10-09T22:29:05.260Z,82.30
2018-10-09T22:31:34.261Z,82.30
2018-10-09T22:34:03.335Z,82.40
2018-10-09T22:36:32.370Z,82.30
2018-10-09T22:39:01.368Z,82.30
2018-10-09T22:41:30.403Z,82.40
2018-10-09T22:43:59.592Z,82.40
2018-10-09T22:46:28.540Z,82.50
2018-10-09T22:48:57.537Z,81.90
2018-10-09T22:51:26.564Z,82.40
2018-10-09T22:53:55.683Z,82.50
2018-10-09T22:56:24.739Z,82.50
2018-10-09T22:58:53.775Z,82.40
2018-10-09T23:01:22.836Z,82.40
2018-10-09T23:03:51.811Z,82.50
2018-10-09T23:06:20.930Z,82.50
2018-10-09T23:08:50.053Z,82.60
2018-10-09T23:11:19.136Z,82.50
2018-10-09T23:13:48.295Z,82.60
2018-10-09T23:16:17.290Z,82.60
2018-10-09T23:18:46.302Z,83.10
2018-10-09T23:21:15.442Z,82.90
2018-10-09T23:23:44.506Z,82.60
2018-10-09T23:26:13.611Z,82.60
2018-10-09T23:28:42.724Z,82.70
2018-10-09T23:31:11.738Z,82.60
2018-10-09T23:33:40.780Z,82.70
2018-10-09T23:36:09.946Z,82.60
2018-10-09T23:38:38.974Z,82.50
2018-10-09T23:41:08.054Z,83.20
2018-10-09T23:43:37.116Z,82.60
2018-10-09T23:46:06.397Z,82.60
2018-10-09T23:48:35.438Z,82.50
2018-10-09T23:51:04.489Z,82.50
2018-10-09T23:53:33.546Z,82.60
2018-10-09T23:56:02.651Z,82.60
2018-10-09T23:58:31.768Z,82.60
